createdAt,value
2022-10-16T00:00:03.650Z,975.59
2022-10-16T00:01:03.635Z,975.57
2022-10-16T00:02:03.667Z,975.62
2022-10-16T00:03:03.612Z,975.55
2022-10-16T00:04:03.594Z,975.54
2022-10-16T00:05:03.577Z,975.50
2022-10-16T00:06:03.570Z,975.51
2022-10-16T00:07:03.548Z,975.56
2022-10-16T00:08:03.532Z,975.57
2022-10-16T00:09:03.526Z,975.60
2022-10-16T00:10:03.502Z,975.49
2022-10-16T00:11:03.491Z,975.58
2022-10-16T00:12:03.475Z,975.55
2022-10-16T00:13:03.478Z,975.52
2022-10-16T00:14:03.479Z,975.62
2022-10-16T00:15:03.443Z,975.59
2022-10-16T00:16:03.425Z,975.52
2022-10-16T00:17:03.417Z,975.57
2022-10-16T00:18:03.403Z,975.53
2022-10-16T00:19:03.388Z,975.57
2022-10-16T00:20:03.372Z,975.58
2022-10-16T00:21:03.373Z,975.68
2022-10-16T00:22:03.338Z,975.69
2022-10-16T00:23:03.335Z,975.71
2022-10-16T00:24:03.313Z,975.68
2022-10-16T00:25:03.309Z,975.75
2022-10-16T00:26:03.290Z,975.70
2022-10-16T00:27:03.284Z,975.72
2022-10-16T00:28:03.265Z,975.71
2022-10-16T00:29:03.365Z,975.68
2022-10-16T00:30:03.254Z,975.68
2022-10-16T00:31:03.229Z,975.64
2022-10-16T00:32:03.205Z,975.63
2022-10-16T00:33:03.194Z,975.64
2022-10-16T00:34:03.188Z,975.67
2022-10-16T00:35:03.166Z,975.64
2022-10-16T00:36:03.152Z,975.67
2022-10-16T00:37:03.143Z,975.65
2022-10-16T00:38:03.128Z,975.64
2022-10-16T00:39:03.363Z,975.65
2022-10-16T00:40:03.108Z,975.60
2022-10-16T00:41:03.090Z,975.66
2022-10-16T00:42:03.076Z,975.65
2022-10-16T00:43:03.064Z,975.67
2022-10-16T00:44:03.044Z,975.73
2022-10-16T00:45:03.032Z,975.68
2022-10-16T00:46:03.034Z,975.63
2022-10-16T00:47:03.003Z,975.59
2022-10-16T00:48:03.006Z,975.60
2022-10-16T00:49:02.980Z,975.62
2022-10-16T00:50:02.963Z,975.67
2022-10-16T00:51:02.951Z,975.56
2022-10-16T00:52:02.938Z,975.63
2022-10-16T00:53:02.928Z,975.65
2022-10-16T00:54:02.919Z,975.61
2022-10-16T00:55:02.901Z,975.64
2022-10-16T00:56:02.884Z,975.67
2022-10-16T00:57:02.939Z,975.67
2022-10-16T00:58:02.856Z,975.70
2022-10-16T00:59:03.264Z,975.74
2022-10-16T01:00:03.254Z,975.71
2022-10-16T01:01:02.879Z,975.75
2022-10-16T01:02:02.824Z,975.73
2022-10-16T01:03:02.792Z,975.72
2022-10-16T01:04:02.774Z,975.83
2022-10-16T01:05:02.772Z,975.79
2022-10-16T01:06:02.748Z,975.80
2022-10-16T01:07:02.738Z,975.79
2022-10-16T01:08:02.722Z,975.74
2022-10-16T01:09:02.713Z,975.79
2022-10-16T01:10:02.690Z,975.78
2022-10-16T01:11:02.682Z,975.71
2022-10-16T01:12:02.670Z,975.69
2022-10-16T01:13:02.651Z,975.72
2022-10-16T01:14:02.633Z,975.77
2022-10-16T01:15:02.629Z,975.79
2022-10-16T01:16:02.611Z,975.87
2022-10-16T01:17:02.603Z,975.85
2022-10-16T01:18:02.607Z,975.82
2022-10-16T01:19:02.577Z,975.87
2022-10-16T01:20:02.558Z,975.93
2022-10-16T01:21:02.550Z,975.92
2022-10-16T01:22:02.530Z,975.89
2022-10-16T01:23:02.519Z,975.86
2022-10-16T01:24:02.499Z,975.84
2022-10-16T01:25:02.485Z,975.79
2022-10-16T01:26:02.471Z,975.77
2022-10-16T01:27:02.461Z,975.83
2022-10-16T01:28:02.447Z,975.85
2022-10-16T01:29:02.547Z,975.79
2022-10-16T01:30:02.422Z,975.77
2022-10-16T01:31:02.413Z,975.77
2022-10-16T01:32:02.391Z,975.72
2022-10-16T01:33:02.377Z,975.73
2022-10-16T01:34:02.385Z,975.69
2022-10-16T01:35:02.348Z,975.71
2022-10-16T01:36:02.333Z,975.76
2022-10-16T01:37:02.323Z,975.80
2022-10-16T01:38:02.304Z,975.80
2022-10-16T01:39:02.306Z,975.83
2022-10-16T01:40:02.275Z,975.87
2022-10-16T01:41:02.270Z,975.81
2022-10-16T01:42:02.265Z,975.74
2022-10-16T01:43:02.295Z,975.79
2022-10-16T01:44:02.231Z,975.73
2022-10-16T01:45:02.227Z,975.74
2022-10-16T01:46:02.200Z,975.72
2022-10-16T01:47:02.191Z,975.71
2022-10-16T01:48:02.172Z,975.73
2022-10-16T01:49:02.155Z,975.71
2022-10-16T01:50:02.158Z,975.71
2022-10-16T01:51:02.125Z,975.78
2022-10-16T01:52:02.154Z,975.80
2022-10-16T01:53:02.101Z,975.75
2022-10-16T01:54:02.083Z,975.76
2022-10-16T01:55:02.122Z,975.77
2022-10-16T01:56:02.057Z,975.78
2022-10-16T01:57:02.051Z,975.81
2022-10-16T01:58:02.030Z,975.83
2022-10-16T01:59:02.022Z,975.69
2022-10-16T02:00:02.005Z,975.82
2022-10-16T02:01:02.092Z,975.75
2022-10-16T02:02:01.971Z,975.79
2022-10-16T02:03:01.960Z,975.81
2022-10-16T02:04:01.944Z,975.78
2022-10-16T02:05:01.938Z,975.82
2022-10-16T02:06:01.944Z,975.71
2022-10-16T02:07:01.923Z,975.75
2022-10-16T02:08:04.777Z,975.75
2022-10-16T02:09:01.878Z,975.75
2022-10-16T02:10:01.867Z,975.74
2022-10-16T02:11:01.856Z,975.72
2022-10-16T02:12:01.846Z,975.69
2022-10-16T02:13:01.830Z,975.67
2022-10-16T02:14:01.812Z,975.70
2022-10-16T02:15:01.797Z,975.73
2022-10-16T02:16:01.783Z,975.68
2022-10-16T02:17:01.766Z,975.69
2022-10-16T02:18:01.757Z,975.70
2022-10-16T02:19:01.742Z,975.68
2022-10-16T02:20:01.731Z,975.72
2022-10-16T02:21:01.709Z,975.82
2022-10-16T02:22:01.727Z,975.78
2022-10-16T02:23:01.684Z,975.80
2022-10-16T02:24:01.679Z,975.91
2022-10-16T02:25:01.665Z,975.87
2022-10-16T02:26:01.652Z,975.84
2022-10-16T02:27:01.640Z,975.83
2022-10-16T02:28:01.624Z,975.88
2022-10-16T02:29:01.616Z,975.90
2022-10-16T02:30:01.603Z,975.84
2022-10-16T02:31:01.581Z,975.92
2022-10-16T02:32:01.566Z,975.90
2022-10-16T02:33:01.555Z,975.91
2022-10-16T02:34:01.549Z,975.84
2022-10-16T02:35:01.527Z,975.83
2022-10-16T02:36:01.516Z,975.77
2022-10-16T02:37:01.493Z,975.79
2022-10-16T02:38:01.559Z,975.85
2022-10-16T02:39:01.471Z,975.85
2022-10-16T02:40:01.454Z,975.86
2022-10-16T02:41:01.442Z,975.88
2022-10-16T02:42:01.432Z,975.91
2022-10-16T02:43:01.414Z,975.87
2022-10-16T02:44:01.402Z,975.91
2022-10-16T02:45:01.405Z,975.86
2022-10-16T02:46:01.378Z,975.90
2022-10-16T02:47:01.410Z,975.87
2022-10-16T02:48:01.352Z,975.84
2022-10-16T02:49:01.340Z,975.85
2022-10-16T02:50:01.327Z,975.75
2022-10-16T02:51:01.308Z,975.75
2022-10-16T02:52:01.302Z,975.84
2022-10-16T02:53:01.276Z,975.84
2022-10-16T02:54:01.291Z,975.85
2022-10-16T02:55:01.252Z,975.85
2022-10-16T02:56:01.244Z,975.81
2022-10-16T02:57:01.227Z,975.80
2022-10-16T02:58:01.226Z,975.84
2022-10-16T02:59:01.196Z,975.84
2022-10-16T03:00:01.187Z,975.79
2022-10-16T03:01:01.244Z,975.88
2022-10-16T03:02:01.170Z,975.82
2022-10-16T03:03:01.147Z,975.81
2022-10-16T03:04:01.136Z,975.78
2022-10-16T03:05:01.118Z,975.86
2022-10-16T03:06:01.104Z,975.92
2022-10-16T03:07:01.091Z,975.86
2022-10-16T03:08:01.082Z,975.87
2022-10-16T03:09:01.062Z,975.82
2022-10-16T03:10:01.074Z,975.81
2022-10-16T03:11:01.033Z,975.85
2022-10-16T03:12:01.024Z,975.75
2022-10-16T03:13:01.005Z,975.81
2022-10-16T03:14:00.996Z,975.78
2022-10-16T03:15:00.979Z,975.84
2022-10-16T03:16:00.976Z,975.88
2022-10-16T03:17:00.951Z,975.79
2022-10-16T03:18:00.942Z,975.84
2022-10-16T03:19:00.923Z,975.78
2022-10-16T03:20:00.920Z,975.84
2022-10-16T03:21:00.902Z,975.90
2022-10-16T03:22:00.893Z,975.92
2022-10-16T03:23:00.876Z,975.87
2022-10-16T03:24:00.861Z,975.89
2022-10-16T03:25:00.847Z,975.86
2022-10-16T03:26:00.859Z,975.83
2022-10-16T03:27:00.821Z,975.82
2022-10-16T03:28:00.804Z,975.79
2022-10-16T03:29:00.862Z,975.81
2022-10-16T03:30:00.778Z,975.81
2022-10-16T03:31:00.761Z,975.82
2022-10-16T03:32:00.757Z,975.84
2022-10-16T03:33:00.736Z,975.83
2022-10-16T03:34:00.725Z,975.86
2022-10-16T03:35:00.708Z,975.83
2022-10-16T03:36:00.703Z,975.85
2022-10-16T03:37:00.680Z,975.95
2022-10-16T03:38:00.671Z,975.91
2022-10-16T03:39:00.654Z,975.89
2022-10-16T03:40:00.644Z,975.87
2022-10-16T03:41:00.638Z,975.91
2022-10-16T03:42:00.644Z,975.88
2022-10-16T03:43:00.602Z,975.87
2022-10-16T03:44:00.595Z,975.89
2022-10-16T03:45:00.576Z,975.91
2022-10-16T03:46:00.565Z,975.90
2022-10-16T03:47:00.554Z,975.84
2022-10-16T03:48:00.540Z,975.91
2022-10-16T03:49:00.516Z,975.90
2022-10-16T03:50:00.512Z,975.93
2022-10-16T03:51:00.496Z,975.94
2022-10-16T03:52:00.479Z,975.94
2022-10-16T03:53:00.469Z,975.96
2022-10-16T03:54:00.457Z,975.89
2022-10-16T03:55:00.444Z,975.97
2022-10-16T03:56:00.428Z,975.93
2022-10-16T03:57:00.412Z,975.91
2022-10-16T03:58:00.427Z,975.87
2022-10-16T03:59:00.392Z,975.92
2022-10-16T04:00:00.374Z,976.01
2022-10-16T04:01:00.444Z,975.97
2022-10-16T04:02:00.343Z,975.98
2022-10-16T04:03:00.334Z,975.99
2022-10-16T04:04:00.319Z,975.98
2022-10-16T04:05:00.300Z,975.94
2022-10-16T04:06:00.297Z,975.98
2022-10-16T04:07:00.277Z,975.90
2022-10-16T04:08:00.262Z,976.01
2022-10-16T04:09:00.252Z,976.00
2022-10-16T04:10:00.260Z,976.04
2022-10-16T04:11:00.227Z,976.03
2022-10-16T04:12:00.206Z,976.01
2022-10-16T04:13:00.194Z,976.03
2022-10-16T04:14:00.198Z,976.05
2022-10-16T04:15:00.194Z,976.09
2022-10-16T04:16:00.149Z,976.07
2022-10-16T04:17:00.141Z,975.97
2022-10-16T04:18:00.131Z,975.92
2022-10-16T04:19:00.111Z,975.96
2022-10-16T04:20:00.105Z,975.99
2022-10-16T04:21:00.095Z,975.98
2022-10-16T04:22:00.091Z,975.93
2022-10-16T04:23:00.092Z,975.96
2022-10-16T04:24:00.063Z,975.94
2022-10-16T04:25:00.038Z,975.93
2022-10-16T04:26:00.021Z,976.03
2022-10-16T04:27:00.011Z,975.95
2022-10-16T04:27:59.989Z,976.05
2022-10-16T04:29:00.097Z,976.05
2022-10-16T04:29:59.987Z,976.00
2022-10-16T04:30:59.943Z,976.03
2022-10-16T04:31:59.930Z,976.03
2022-10-16T04:33:59.909Z,975.92
2022-10-16T04:34:59.895Z,975.98
2022-10-16T04:35:59.874Z,975.99
2022-10-16T04:36:59.869Z,975.94
2022-10-16T04:37:59.855Z,976.00
2022-10-16T04:38:59.845Z,976.00
2022-10-16T04:39:59.827Z,975.94
2022-10-16T04:40:59.808Z,975.92
2022-10-16T04:41:59.791Z,975.94
2022-10-16T04:42:59.780Z,976.00
2022-10-16T04:43:59.762Z,975.98
2022-10-16T04:44:59.756Z,976.00
2022-10-16T04:45:59.763Z,976.01
2022-10-16T04:46:59.737Z,976.04
2022-10-16T04:47:59.718Z,976.02
2022-10-16T04:48:59.704Z,976.05
2022-10-16T04:49:59.684Z,976.07
2022-10-16T04:50:59.679Z,976.06
2022-10-16T04:51:59.658Z,976.09
2022-10-16T04:52:59.648Z,976.16
2022-10-16T04:53:59.626Z,976.08
2022-10-16T04:54:59.617Z,976.14
2022-10-16T04:55:59.598Z,976.11
2022-10-16T04:56:59.587Z,976.13
2022-10-16T04:57:59.573Z,976.17
2022-10-16T04:58:59.562Z,976.13
2022-10-16T04:59:59.595Z,976.23
2022-10-16T05:00:59.595Z,976.17
2022-10-16T05:01:59.551Z,976.20
2022-10-16T05:02:59.543Z,976.25
2022-10-16T05:03:59.499Z,976.27
2022-10-16T05:04:59.484Z,976.27
2022-10-16T05:05:59.481Z,976.26
2022-10-16T05:06:59.452Z,976.22
2022-10-16T05:07:59.439Z,976.23
2022-10-16T05:08:59.426Z,976.22
2022-10-16T05:09:59.407Z,976.23
2022-10-16T05:10:59.401Z,976.25
2022-10-16T05:11:59.381Z,976.31
2022-10-16T05:12:59.371Z,976.29
2022-10-16T05:13:59.471Z,976.24
2022-10-16T05:14:59.798Z,976.35
2022-10-16T05:15:59.333Z,976.34
2022-10-16T05:16:59.316Z,976.35
2022-10-16T05:17:59.324Z,976.39
2022-10-16T05:19:22.519Z,976.42
2022-10-16T05:20:00.298Z,976.38
2022-10-16T05:20:59.268Z,976.39
2022-10-16T05:21:59.241Z,976.38
2022-10-16T05:22:59.330Z,976.34
2022-10-16T05:23:59.314Z,976.30
2022-10-16T05:24:59.295Z,976.28
2022-10-16T05:25:59.332Z,976.34
2022-10-16T05:26:59.311Z,976.35
2022-10-16T05:27:59.229Z,976.32
2022-10-16T05:28:59.261Z,976.41
2022-10-16T05:29:59.153Z,976.38
2022-10-16T05:30:59.136Z,976.40
2022-10-16T05:31:59.148Z,976.35
2022-10-16T05:32:59.093Z,976.35
2022-10-16T05:33:59.102Z,976.35
2022-10-16T05:34:59.067Z,976.42
2022-10-16T05:35:59.051Z,976.40
2022-10-16T05:36:59.041Z,976.37
2022-10-16T05:37:59.026Z,976.41
2022-10-16T05:38:59.016Z,976.37
2022-10-16T05:39:58.993Z,976.46
2022-10-16T05:40:58.996Z,976.41
2022-10-16T05:41:58.976Z,976.48
2022-10-16T05:42:59.016Z,976.45
2022-10-16T05:43:58.945Z,976.55
2022-10-16T05:44:58.936Z,976.53
2022-10-16T05:45:58.918Z,976.64
2022-10-16T05:46:58.904Z,976.65
2022-10-16T05:47:58.884Z,976.62
2022-10-16T05:48:58.882Z,976.61
2022-10-16T05:49:58.881Z,976.61
2022-10-16T05:50:58.852Z,976.61
2022-10-16T05:51:58.840Z,976.62
2022-10-16T05:52:58.827Z,976.64
2022-10-16T05:53:58.816Z,976.61
2022-10-16T05:54:58.796Z,976.60
2022-10-16T05:55:58.777Z,976.56
2022-10-16T05:56:58.764Z,976.60
2022-10-16T05:57:58.744Z,976.60
2022-10-16T05:58:58.737Z,976.64
2022-10-16T05:59:58.740Z,976.55
2022-10-16T06:00:58.751Z,976.60
2022-10-16T06:01:58.838Z,976.63
2022-10-16T06:02:58.681Z,976.62
2022-10-16T06:03:58.711Z,976.59
2022-10-16T06:04:58.654Z,976.67
2022-10-16T06:05:58.661Z,976.76
2022-10-16T06:06:58.631Z,976.73
2022-10-16T06:07:58.610Z,976.72
2022-10-16T06:08:58.604Z,976.72
2022-10-16T06:09:58.585Z,976.74
2022-10-16T06:10:58.573Z,976.74
2022-10-16T06:11:58.560Z,976.72
2022-10-16T06:12:58.552Z,976.71
2022-10-16T06:13:58.526Z,976.73
2022-10-16T06:14:58.519Z,976.72
2022-10-16T06:15:58.498Z,976.72
2022-10-16T06:16:58.492Z,976.71
2022-10-16T06:17:58.473Z,976.68
2022-10-16T06:18:58.462Z,976.72
2022-10-16T06:19:58.447Z,976.73
2022-10-16T06:20:58.435Z,976.78
2022-10-16T06:21:58.439Z,976.77
2022-10-16T06:22:58.405Z,976.76
2022-10-16T06:23:58.387Z,976.75
2022-10-16T06:24:58.377Z,976.70
2022-10-16T06:25:58.362Z,976.75
2022-10-16T06:26:58.353Z,976.85
2022-10-16T06:27:58.339Z,976.88
2022-10-16T06:28:58.562Z,976.86
2022-10-16T06:29:58.307Z,976.77
2022-10-16T06:30:58.294Z,976.77
2022-10-16T06:31:58.285Z,976.75
2022-10-16T06:32:58.282Z,976.84
2022-10-16T06:33:58.256Z,976.85
2022-10-16T06:34:58.245Z,976.92
2022-10-16T06:35:58.227Z,976.91
2022-10-16T06:36:58.226Z,976.91
2022-10-16T06:37:58.222Z,976.91
2022-10-16T06:38:58.191Z,976.83
2022-10-16T06:39:58.172Z,976.95
2022-10-16T06:40:58.163Z,976.91
2022-10-16T06:41:58.150Z,976.92
2022-10-16T06:42:58.132Z,976.98
2022-10-16T06:43:58.120Z,976.94
2022-10-16T06:44:58.105Z,977.09
2022-10-16T06:45:58.090Z,977.02
2022-10-16T06:46:58.083Z,977.03
2022-10-16T06:47:58.068Z,976.99
2022-10-16T06:48:58.054Z,976.92
2022-10-16T06:49:58.037Z,976.95
2022-10-16T06:50:58.104Z,976.89
2022-10-16T06:51:58.013Z,976.96
2022-10-16T06:52:58.005Z,976.94
2022-10-16T06:54:05.256Z,976.96
2022-10-16T06:54:59.000Z,976.99
2022-10-16T06:55:57.961Z,976.98
2022-10-16T06:56:57.949Z,977.05
2022-10-16T06:57:57.929Z,977.04
2022-10-16T06:58:57.919Z,977.11
2022-10-16T06:59:57.902Z,977.09
2022-10-16T07:00:57.889Z,977.12
2022-10-16T07:01:57.870Z,977.11
2022-10-16T07:02:57.861Z,977.16
2022-10-16T07:03:57.846Z,977.19
2022-10-16T07:04:57.832Z,977.24
2022-10-16T07:05:57.816Z,977.13
2022-10-16T07:06:57.820Z,977.28
2022-10-16T07:07:57.791Z,977.21
2022-10-16T07:08:57.782Z,977.24
2022-10-16T07:09:57.787Z,977.30
2022-10-16T07:10:57.754Z,977.27
2022-10-16T07:11:57.739Z,977.30
2022-10-16T07:12:57.728Z,977.35
2022-10-16T07:13:57.712Z,977.37
2022-10-16T07:14:57.703Z,977.42
2022-10-16T07:15:57.688Z,977.40
2022-10-16T07:16:57.672Z,977.40
2022-10-16T07:17:57.652Z,977.46
2022-10-16T07:18:57.646Z,977.37
2022-10-16T07:19:57.627Z,977.33
2022-10-16T07:20:57.621Z,977.38
2022-10-16T07:21:57.610Z,977.48
2022-10-16T07:22:57.597Z,977.44
2022-10-16T07:23:57.575Z,977.47
2022-10-16T07:24:57.570Z,977.47
2022-10-16T07:25:57.572Z,977.46
2022-10-16T07:26:57.538Z,977.52
2022-10-16T07:27:57.521Z,977.48
2022-10-16T07:28:57.617Z,977.57
2022-10-16T07:29:57.496Z,977.52
2022-10-16T07:30:57.558Z,977.62
2022-10-16T07:31:57.466Z,977.63
2022-10-16T07:32:57.458Z,977.56
2022-10-16T07:33:57.442Z,977.66
2022-10-16T07:34:57.434Z,977.67
2022-10-16T07:35:57.410Z,977.70
2022-10-16T07:36:57.402Z,977.71
2022-10-16T07:37:57.383Z,977.68
2022-10-16T07:39:00.013Z,977.69
2022-10-16T07:39:57.367Z,977.76
2022-10-16T07:40:57.352Z,977.80
2022-10-16T07:41:57.352Z,977.77
2022-10-16T07:42:57.320Z,977.83
2022-10-16T07:43:57.312Z,977.72
2022-10-16T07:44:57.304Z,977.73
2022-10-16T07:45:59.037Z,977.72
2022-10-16T07:46:57.274Z,977.69
2022-10-16T07:47:57.251Z,977.63
2022-10-16T07:48:57.248Z,977.72
2022-10-16T07:49:57.232Z,977.76
2022-10-16T07:50:57.219Z,977.79
2022-10-16T07:51:57.202Z,977.79
2022-10-16T07:52:57.186Z,977.75
2022-10-16T07:53:57.173Z,977.80
2022-10-16T07:54:57.166Z,977.84
2022-10-16T07:55:57.142Z,977.77
2022-10-16T07:56:57.131Z,977.78
2022-10-16T07:57:57.135Z,977.91
2022-10-16T07:58:57.105Z,977.88
2022-10-16T07:59:57.084Z,977.89
2022-10-16T08:00:57.167Z,977.94
2022-10-16T08:01:57.061Z,977.85
2022-10-16T08:02:57.052Z,977.86
2022-10-16T08:03:57.062Z,977.89
2022-10-16T08:04:57.022Z,977.91
2022-10-16T08:05:57.006Z,977.96
2022-10-16T08:06:56.997Z,977.94
2022-10-16T08:07:56.975Z,977.91
2022-10-16T08:08:56.972Z,977.89
2022-10-16T08:09:56.957Z,977.80
2022-10-16T08:10:56.945Z,977.82
2022-10-16T08:12:02.011Z,977.70
2022-10-16T08:12:56.998Z,977.77
2022-10-16T08:13:56.917Z,977.73
2022-10-16T08:14:56.885Z,977.79
2022-10-16T08:15:56.868Z,977.75
2022-10-16T08:16:56.860Z,977.83
2022-10-16T08:17:56.891Z,977.89
2022-10-16T08:18:56.832Z,977.91
2022-10-16T08:19:56.814Z,977.88
2022-10-16T08:20:56.806Z,977.96
2022-10-16T08:21:56.792Z,977.93
2022-10-16T08:22:56.781Z,977.95
2022-10-16T08:23:58.296Z,977.90
2022-10-16T08:24:56.747Z,977.85
2022-10-16T08:25:56.747Z,977.81
2022-10-16T08:26:56.723Z,977.88
2022-10-16T08:27:56.711Z,977.87
2022-10-16T08:28:56.822Z,977.92
2022-10-16T08:29:56.704Z,977.89
2022-10-16T08:30:56.663Z,977.90
2022-10-16T08:31:56.653Z,977.92
2022-10-16T08:32:56.639Z,977.97
2022-10-16T08:33:56.629Z,977.99
2022-10-16T08:34:56.609Z,977.94
2022-10-16T08:35:56.598Z,977.97
2022-10-16T08:36:56.591Z,978.02
2022-10-16T08:37:56.579Z,977.93
2022-10-16T08:38:56.566Z,977.93
2022-10-16T08:39:56.549Z,978.03
2022-10-16T08:40:56.530Z,978.07
2022-10-16T08:41:56.524Z,978.04
2022-10-16T08:42:56.519Z,977.99
2022-10-16T08:43:56.504Z,978.05
2022-10-16T08:44:56.480Z,978.08
2022-10-16T08:45:56.492Z,978.03
2022-10-16T08:46:56.454Z,978.07
2022-10-16T08:47:56.438Z,978.09
2022-10-16T08:48:56.419Z,978.10
2022-10-16T08:49:56.415Z,978.06
2022-10-16T08:50:56.397Z,978.02
2022-10-16T08:51:56.389Z,978.12
2022-10-16T08:52:56.374Z,978.11
2022-10-16T08:53:56.358Z,978.09
2022-10-16T08:54:56.345Z,978.11
2022-10-16T08:55:56.331Z,978.16
2022-10-16T08:56:56.312Z,978.15
2022-10-16T08:57:56.308Z,978.12
2022-10-16T08:58:59.978Z,978.07
2022-10-16T08:59:56.282Z,978.10
2022-10-16T09:00:56.383Z,978.08
2022-10-16T09:01:56.270Z,978.22
2022-10-16T09:02:56.230Z,978.22
2022-10-16T09:03:56.222Z,978.22
2022-10-16T09:04:56.899Z,978.24
2022-10-16T09:05:56.193Z,978.28
2022-10-16T09:06:56.179Z,978.21
2022-10-16T09:07:56.203Z,978.24
2022-10-16T09:08:56.348Z,978.19
2022-10-16T09:09:56.137Z,978.23
2022-10-16T09:10:56.122Z,978.24
2022-10-16T09:11:56.115Z,978.14
2022-10-16T09:12:56.099Z,978.31
2022-10-16T09:13:56.141Z,978.22
2022-10-16T09:14:56.077Z,978.30
2022-10-16T09:15:56.057Z,978.25
2022-10-16T09:16:56.080Z,978.31
2022-10-16T09:17:56.059Z,978.21
2022-10-16T09:18:56.020Z,978.18
2022-10-16T09:19:56.008Z,978.12
2022-10-16T09:20:55.991Z,978.12
2022-10-16T09:21:55.981Z,978.15
2022-10-16T09:22:55.960Z,978.18
2022-10-16T09:23:55.957Z,978.18
2022-10-16T09:24:55.936Z,978.23
2022-10-16T09:25:55.924Z,978.17
2022-10-16T09:26:55.907Z,978.20
2022-10-16T09:27:55.897Z,978.19
2022-10-16T09:28:55.977Z,978.13
2022-10-16T09:29:58.956Z,978.08
2022-10-16T09:30:55.855Z,978.15
2022-10-16T09:31:55.844Z,978.21
2022-10-16T09:32:55.827Z,978.14
2022-10-16T09:33:55.845Z,978.14
2022-10-16T09:34:55.805Z,978.15
2022-10-16T09:35:55.797Z,978.12
2022-10-16T09:36:55.780Z,978.15
2022-10-16T09:37:55.766Z,978.18
2022-10-16T09:38:55.750Z,978.19
2022-10-16T09:39:55.739Z,978.17
2022-10-16T09:40:59.335Z,978.16
2022-10-16T09:41:56.729Z,978.13
2022-10-16T09:42:55.693Z,978.21
2022-10-16T09:43:55.682Z,978.26
2022-10-16T09:44:55.667Z,978.20
2022-10-16T09:45:55.656Z,978.20
2022-10-16T09:46:55.638Z,978.21
2022-10-16T09:47:57.864Z,978.22
2022-10-16T09:48:55.615Z,978.20
2022-10-16T09:49:55.627Z,978.19
2022-10-16T09:50:55.590Z,978.15
2022-10-16T09:51:55.580Z,978.26
2022-10-16T09:52:55.563Z,978.22
2022-10-16T09:53:55.562Z,978.30
2022-10-16T09:54:55.536Z,978.35
2022-10-16T09:55:55.528Z,978.34
2022-10-16T09:56:55.505Z,978.38
2022-10-16T09:57:55.498Z,978.38
2022-10-16T09:58:55.485Z,978.31
2022-10-16T09:59:55.467Z,978.38
2022-10-16T10:00:55.453Z,978.32
2022-10-16T10:01:55.446Z,978.32
2022-10-16T10:03:55.422Z,978.38
2022-10-16T10:04:55.422Z,978.43
2022-10-16T10:05:58.513Z,978.43
2022-10-16T10:06:55.383Z,978.45
2022-10-16T10:07:55.369Z,978.45
2022-10-16T10:08:55.346Z,978.40
2022-10-16T10:09:55.336Z,978.35
2022-10-16T10:10:55.319Z,978.38
2022-10-16T10:11:55.407Z,978.40
2022-10-16T10:12:55.293Z,978.36
2022-10-16T10:13:55.282Z,978.24
2022-10-16T10:14:55.268Z,978.29
2022-10-16T10:15:55.263Z,978.25
2022-10-16T10:16:55.244Z,978.35
2022-10-16T10:17:55.230Z,978.25
2022-10-16T10:18:55.215Z,978.19
2022-10-16T10:19:55.204Z,978.21
2022-10-16T10:20:55.219Z,978.22
2022-10-16T10:21:55.200Z,978.27
2022-10-16T10:22:55.161Z,978.23
2022-10-16T10:23:55.147Z,978.22
2022-10-16T10:24:55.129Z,978.23
2022-10-16T10:25:55.119Z,978.20
2022-10-16T10:26:55.103Z,978.12
2022-10-16T10:27:55.095Z,978.09
2022-10-16T10:28:55.114Z,978.13
2022-10-16T10:29:55.072Z,978.16
2022-10-16T10:30:55.052Z,978.00
2022-10-16T10:31:55.045Z,978.03
2022-10-16T10:32:55.025Z,978.00
2022-10-16T10:33:55.017Z,978.04
2022-10-16T10:34:56.702Z,977.83
2022-10-16T10:35:54.987Z,977.89
2022-10-16T10:36:54.976Z,977.86
2022-10-16T10:37:54.987Z,977.88
2022-10-16T10:38:54.950Z,977.84
2022-10-16T10:39:54.941Z,977.93
2022-10-16T10:40:54.923Z,978.00
2022-10-16T10:41:54.916Z,978.02
2022-10-16T10:42:54.897Z,977.96
2022-10-16T10:43:54.888Z,978.02
2022-10-16T10:44:54.868Z,977.99
2022-10-16T10:45:54.864Z,978.04
2022-10-16T10:46:54.839Z,978.07
2022-10-16T10:47:54.832Z,978.03
2022-10-16T10:48:54.814Z,978.09
2022-10-16T10:49:54.805Z,978.09
2022-10-16T10:50:54.789Z,977.97
2022-10-16T10:51:54.778Z,978.14
2022-10-16T10:52:54.763Z,978.11
2022-10-16T10:53:54.779Z,978.08
2022-10-16T10:54:54.735Z,978.10
2022-10-16T10:55:54.732Z,978.11
2022-10-16T10:56:54.712Z,978.12
2022-10-16T10:57:54.706Z,978.14
2022-10-16T10:58:54.684Z,978.10
2022-10-16T10:59:54.672Z,978.07
2022-10-16T11:00:54.659Z,977.99
2022-10-16T11:01:54.677Z,978.02
2022-10-16T11:02:54.625Z,978.05
2022-10-16T11:03:58.472Z,978.01
2022-10-16T11:04:54.605Z,978.00
2022-10-16T11:05:54.594Z,977.96
2022-10-16T11:06:54.575Z,978.04
2022-10-16T11:07:54.575Z,978.02
2022-10-16T11:08:57.628Z,978.00
2022-10-16T11:09:55.579Z,977.91
2022-10-16T11:10:54.520Z,977.88
2022-10-16T11:11:54.509Z,977.82
2022-10-16T11:12:54.496Z,977.85
2022-10-16T11:13:54.483Z,977.76
2022-10-16T11:14:54.469Z,977.87
2022-10-16T11:15:54.459Z,977.82
2022-10-16T11:16:54.441Z,977.86
2022-10-16T11:17:54.432Z,977.85
2022-10-16T11:18:54.419Z,977.87
2022-10-16T11:19:54.411Z,977.89
2022-10-16T11:20:54.392Z,977.84
2022-10-16T11:21:54.385Z,977.85
2022-10-16T11:22:54.363Z,977.76
2022-10-16T11:23:54.359Z,977.82
2022-10-16T11:24:54.400Z,977.79
2022-10-16T11:25:54.347Z,977.74
2022-10-16T11:26:54.309Z,977.71
2022-10-16T11:27:54.306Z,977.63
2022-10-16T11:28:54.361Z,977.64
2022-10-16T11:29:54.275Z,977.66
2022-10-16T11:30:54.257Z,977.72
2022-10-16T11:31:54.248Z,977.68
2022-10-16T11:32:54.233Z,977.65
2022-10-16T11:33:54.287Z,977.63
2022-10-16T11:34:54.217Z,977.63
2022-10-16T11:35:54.203Z,977.61
2022-10-16T11:36:54.197Z,977.55
2022-10-16T11:37:54.175Z,977.53
2022-10-16T11:38:54.152Z,977.53
2022-10-16T11:39:54.151Z,977.54
2022-10-16T11:40:54.134Z,977.48
2022-10-16T11:41:54.149Z,977.48
2022-10-16T11:42:54.110Z,977.53
2022-10-16T11:43:54.101Z,977.59
2022-10-16T11:44:54.084Z,977.54
2022-10-16T11:45:54.082Z,977.52
2022-10-16T11:47:00.765Z,977.48
2022-10-16T11:47:59.251Z,977.45
2022-10-16T11:48:54.036Z,977.45
2022-10-16T11:49:54.023Z,977.42
2022-10-16T11:50:54.004Z,977.35
2022-10-16T11:51:54.000Z,977.38
2022-10-16T11:52:53.979Z,977.35
2022-10-16T11:53:53.970Z,977.33
2022-10-16T11:54:53.954Z,977.33
2022-10-16T11:55:53.947Z,977.24
2022-10-16T11:56:53.935Z,977.29
2022-10-16T11:57:53.945Z,977.33
2022-10-16T11:58:53.911Z,977.27
2022-10-16T11:59:53.903Z,977.26
2022-10-16T12:00:53.893Z,977.26
2022-10-16T12:01:53.873Z,977.29
2022-10-16T12:02:53.861Z,977.25
2022-10-16T12:03:53.913Z,977.23
2022-10-16T12:04:53.841Z,977.23
2022-10-16T12:05:53.821Z,977.24
2022-10-16T12:06:53.806Z,977.21
2022-10-16T12:07:53.804Z,977.26
2022-10-16T12:08:53.789Z,977.22
2022-10-16T12:09:53.775Z,977.19
2022-10-16T12:10:53.760Z,977.29
2022-10-16T12:11:53.755Z,977.27
2022-10-16T12:12:53.733Z,977.42
2022-10-16T12:13:53.747Z,977.41
2022-10-16T12:15:14.741Z,977.48
2022-10-16T12:15:59.025Z,977.50
2022-10-16T12:16:53.689Z,977.39
2022-10-16T12:17:53.675Z,977.41
2022-10-16T12:18:53.667Z,977.38
2022-10-16T12:19:53.667Z,977.32
2022-10-16T12:20:53.637Z,977.42
2022-10-16T12:21:53.628Z,977.41
2022-10-16T12:22:53.611Z,977.30
2022-10-16T12:23:53.605Z,977.29
2022-10-16T12:24:53.591Z,977.23
2022-10-16T12:25:53.583Z,977.29
2022-10-16T12:26:53.561Z,977.37
2022-10-16T12:27:53.554Z,977.30
2022-10-16T12:28:53.661Z,977.42
2022-10-16T12:29:53.566Z,977.49